ENVA/TRD METAR and TAF weather

Enter ICAO airport designator
Station Type Date Time Source
ENVA METAR 2019/10/16 19:20 UTC NOAA

ENVA 161920Z 11014KT 090V150 9999 -RA FEW026 BKN051 07/04 Q1008 NOSIG RMK WIND 670FT 13017KT


Station Type Date Time Source
ENVA Decoded METAR 2019/10/16 19:20 UTC NOAA

Trondheim / Vaernes, Norway (ENVA) 63-28N 010-56E 17M
Oct 16, 2019 - 03:20 PM EDT / 2019.10.16 1920 UTC
Wind: from the ESE (110 degrees) at 16 MPH (14 KT) (direction variable):0
Visibility: greater than 7 mile(s):0
Sky conditions: mostly cloudy
Weather: light rain
Temperature: 44 F (7 C)
Dew Point: 39 F (4 C)
Relative Humidity: 81%
Pressure (altimeter): 29.77 in. Hg (1008 hPa)
ob: ENVA 161920Z 11014KT 090V150 9999 -RA FEW026 BKN051 07/04 Q1008 NOSIG RMK WIND 670FT 13017KT
cycle: 19

Station Type Date Time Source
ENVA TAF 2019/10/16 18:57 UTC NOAA

TAF ENVA 161700Z 1618/1718 12010KT 9999 -RA FEW025 OVC055
TEMPO 1618/1718 14015G25KT

Example: see airport list